ADDS METAR Data INFO
IDs: Format: Raw Decoded Include TAF

Data at: 1412 UTC 12 Dec 2017

KMCO 121353Z 21010KT 10SM FEW300 12/08 A3007
KMCO 121253Z 22008KT 10SM FEW300 10/06 A3007
KMCO 121153Z 21006KT 10SM FEW300 08/06 A3007
KMCO 121053Z 22007KT 10SM CLR 07/07 A3008
KMCO 120853Z 21008KT 10SM CLR 06/06 A3009
KMCO 120753Z 21008KT 10SM CLR 06/05 A3010
KMCO 120653Z 23008KT 10SM FEW250 07/05 A3011
KMCO 120553Z 27006KT 10SM FEW250 04/04 A3013
KMCO 120453Z 27005KT 10SM CLR 05/04 A3015
KMCO 120353Z 27009KT 10SM CLR 06/03 A3017
KMCO 120253Z 29008KT 10SM CLR 10/00 A3019
KMCO 120153Z 27008KT 10SM CLR 10/00 A3019
KMCO 120053Z 27003KT 10SM CLR 10/M00 A3019
KMCO 112353Z 31005KT 10SM CLR 11/M01 A3019
KMCO 112253Z 27006KT 10SM CLR 12/M01 A3018
KMCO 112153Z 27005KT 10SM CLR 15/M01 A3017
KMCO 112053Z 32008KT 10SM FEW250 16/M02 A3018
KMCO 111953Z 30006KT 10SM FEW250 16/M03 A3018
KMCO 111853Z 29003KT 10SM CLR 18/M03 A3020
KMCO 111753Z 34005KT 10SM CLR 19/M08 A3023
KMCO 111653Z 32010KT 10SM CLR 17/M08 A3026
KMCO 111553Z 34009KT 10SM CLR 15/M05 A3029
KMCO 111453Z 36010KT 10SM FEW250 15/M03 A3031
KMCO 111353Z 36006KT 10SM FEW250 14/M04 A3031
KMCO 111253Z 34003KT 10SM FEW250 05/04 A3031
KMCO 111155Z 35004KT 10SM CLR 05/03 A3030
KMCO 111053Z 36005KT 10SM CLR 06/02 A3029
KMCO 110953Z 32007KT 10SM CLR 05/03 A3029
KMCO 110853Z 27003KT 10SM CLR 04/04 A3029
KMCO 110753Z 00000KT 10SM CLR 05/04 A3029
KMCO 110653Z 30007KT 10SM CLR 05/03 A3030
KMCO 110553Z 29007KT 10SM CLR 04/04 A3031
KMCO 110453Z 30006KT 10SM FEW250 04/03 A3032
KMCO 110353Z 28004KT 10SM CLR 04/01 A3033
KMCO 110253Z 29006KT 10SM CLR 07/01 A3033